Time;durP1;ratioP1;P1;durP2;ratioP2;P2;SDS_P1;SDS_P2;PMS_P1;PMS_P2;Temp;Humidity;BMP_temperature;BMP_pressure;BME280_temperature;BME280_humidity;BME280_pressure;Samples;Min_cycle;Max_cycle;Signal;HPM_P1;HPM_P2
2021/08/23 00:00:29;;;;;;;21.43;19.30;;;17.10;99.90;;;;;;5012487;28;20564;-71
2021/08/23 00:02:54;;;;;;;21.40;19.30;;;17.10;99.90;;;;;;5012402;28;20192;-70
2021/08/23 00:05:19;;;;;;;22.67;20.27;;;17.10;99.90;;;;;;5011712;28;20265;-70
2021/08/23 00:07:45;;;;;;;22.17;19.93;;;17.10;99.90;;;;;;5011856;28;20178;-71
2021/08/23 00:10:11;;;;;;;24.70;22.10;;;17.10;99.90;;;;;;5012336;28;20263;-70
2021/08/23 00:12:36;;;;;;;23.23;20.90;;;17.00;99.90;;;;;;5012040;28;20268;-71
2021/08/23 00:15:04;;;;;;;23.20;20.80;;;17.10;99.90;;;;;;5012208;28;20416;-71
2021/08/23 00:17:29;;;;;;;23.90;21.60;;;17.10;99.90;;;;;;5008417;28;20271;-70
2021/08/23 00:19:55;;;;;;;23.57;21.27;;;17.10;99.90;;;;;;4991283;28;20970;-70
2021/08/23 00:22:22;;;;;;;22.73;20.30;;;17.10;99.90;;;;;;4992435;28;20187;-70
2021/08/23 00:24:51;;;;;;;24.90;21.73;;;17.00;99.90;;;;;;4992583;28;20159;-70
2021/08/23 00:27:18;;;;;;;24.30;21.00;;;17.00;99.90;;;;;;4992538;28;20407;-71
2021/08/23 00:29:44;;;;;;;25.20;22.80;;;17.00;99.90;;;;;;4992833;28;20811;-71
2021/08/23 00:32:10;;;;;;;24.00;21.47;;;17.10;99.90;;;;;;4992332;28;20516;-70
2021/08/23 00:34:35;;;;;;;22.60;20.20;;;17.10;99.90;;;;;;4992432;28;20862;-71
2021/08/23 00:37:01;;;;;;;23.00;20.50;;;17.10;99.90;;;;;;4992245;28;20202;-71
2021/08/23 00:39:27;;;;;;;23.70;21.40;;;17.10;99.90;;;;;;4992474;28;20198;-71
2021/08/23 00:41:52;;;;;;;24.00;21.70;;;17.10;99.90;;;;;;5005282;28;21050;-71
2021/08/23 00:44:18;;;;;;;24.90;22.30;;;17.10;99.90;;;;;;5009925;28;20178;-71
2021/08/23 00:46:43;;;;;;;23.40;21.10;;;17.10;99.90;;;;;;4992235;28;20661;-71
2021/08/23 00:49:09;;;;;;;28.80;22.00;;;17.10;99.90;;;;;;5010334;28;20186;-70
2021/08/23 00:51:34;;;;;;;25.87;20.93;;;17.10;99.90;;;;;;5009699;28;20170;-70
2021/08/23 00:54:00;;;;;;;22.53;20.13;;;17.10;99.90;;;;;;5009915;28;20175;-70
2021/08/23 00:56:25;;;;;;;23.27;21.03;;;17.00;99.90;;;;;;5011031;28;20207;-71
2021/08/23 00:58:51;;;;;;;24.57;20.97;;;17.00;99.90;;;;;;5011537;28;20170;-70
2021/08/23 01:01:30;;;;;;;23.63;21.00;;;17.00;99.90;;;;;;5011806;28;20284;-70
2021/08/23 01:04:02;;;;;;;25.23;22.60;;;17.00;99.90;;;;;;5011728;28;20749;-70
2021/08/23 01:06:29;;;;;;;24.03;21.60;;;17.00;99.90;;;;;;5011646;28;20393;-70
2021/08/23 01:08:59;;;;;;;23.30;20.90;;;17.00;99.90;;;;;;5011433;28;20417;-70
2021/08/23 01:11:27;;;;;;;21.43;19.33;;;16.90;99.90;;;;;;5011428;28;20467;-70
2021/08/23 01:13:52;;;;;;;23.77;21.37;;;17.00;99.90;;;;;;5011453;28;20442;-70
2021/08/23 01:16:18;;;;;;;24.67;22.17;;;17.00;99.90;;;;;;5011411;28;20548;-71
2021/08/23 01:18:44;;;;;;;25.87;23.37;;;17.00;99.90;;;;;;5014498;28;20168;-70
2021/08/23 01:21:19;;;;;;;23.50;20.83;;;17.00;99.90;;;;;;5015083;28;20410;-70
2021/08/23 01:23:46;;;;;;;24.57;21.80;;;17.00;99.90;;;;;;5015234;28;20167;-70
2021/08/23 01:26:16;;;;;;;23.03;20.67;;;17.00;99.90;;;;;;5015196;28;20471;-71
2021/08/23 01:29:14;;;;;;;23.07;20.10;;;17.00;99.90;;;;;;5013824;28;20419;-70
2021/08/23 01:32:10;;;;;;;25.63;21.13;;;17.00;99.90;;;;;;5014950;28;20466;-71
2021/08/23 01:34:37;;;;;;;21.97;18.67;;;17.00;99.90;;;;;;5014920;28;20488;-70
2021/08/23 01:37:03;;;;;;;25.27;21.33;;;17.00;99.90;;;;;;5014936;28;20463;-70
2021/08/23 01:39:32;;;;;;;21.43;19.13;;;17.00;99.90;;;;;;5014986;28;20965;-70
2021/08/23 01:41:58;;;;;;;22.27;20.07;;;17.00;99.90;;;;;;4997117;28;20491;-71
2021/08/23 01:44:24;;;;;;;23.27;20.63;;;17.00;99.90;;;;;;5012154;28;20470;-70
2021/08/23 01:46:49;;;;;;;21.57;19.40;;;17.00;99.90;;;;;;4998150;28;20461;-71
2021/08/23 01:49:15;;;;;;;24.00;20.70;;;17.00;99.90;;;;;;4995035;28;20166;-70
2021/08/23 01:51:40;;;;;;;25.97;23.27;;;17.00;99.90;;;;;;4995188;28;20569;-70
2021/08/23 01:54:06;;;;;;;22.63;20.33;;;17.00;99.90;;;;;;4995270;28;20170;-70
2021/08/23 01:56:32;;;;;;;23.23;21.10;;;17.00;99.90;;;;;;4994974;28;20201;-70
2021/08/23 01:59:02;;;;;;;24.87;22.27;;;17.00;99.90;;;;;;4994806;28;20181;-70
2021/08/23 02:01:29;;;;;;;28.03;25.30;;;17.00;99.90;;;;;;4994890;28;20459;-70
2021/08/23 02:03:55;;;;;;;25.87;23.17;;;17.00;99.90;;;;;;4994807;28;20416;-70
2021/08/23 02:06:20;;;;;;;26.07;23.20;;;17.00;99.90;;;;;;4995146;28;20409;-70
2021/08/23 02:08:46;;;;;;;23.50;21.20;;;17.00;99.90;;;;;;4994773;28;20183;-70
2021/08/23 02:11:11;;;;;;;22.90;20.60;;;16.90;99.90;;;;;;4994745;28;20174;-71
2021/08/23 02:13:37;;;;;;;23.73;21.40;;;17.00;99.90;;;;;;4994626;28;20205;-71
2021/08/23 02:16:02;;;;;;;21.07;19.00;;;17.00;99.90;;;;;;4994621;28;20194;-71
2021/08/23 02:18:28;;;;;;;22.17;19.43;;;16.90;99.90;;;;;;4994403;28;20166;-70
2021/08/23 02:20:53;;;;;;;20.10;18.00;;;17.00;99.90;;;;;;4994916;28;20226;-70
2021/08/23 02:23:19;;;;;;;21.60;19.23;;;16.90;99.90;;;;;;4994761;28;20220;-70
2021/08/23 02:25:44;;;;;;;19.60;17.70;;;16.90;99.90;;;;;;4996258;28;20190;-70
2021/08/23 02:28:10;;;;;;;19.30;17.43;;;16.90;99.90;;;;;;5013967;28;20225;-71
2021/08/23 02:30:37;;;;;;;18.80;16.87;;;16.80;99.90;;;;;;5013684;28;20179;-71
2021/08/23 02:33:03;;;;;;;16.77;15.17;;;16.80;99.90;;;;;;5003736;28;20275;-70
2021/08/23 02:35:29;;;;;;;14.60;13.20;;;16.80;99.90;;;;;;4994604;28;20464;-70
2021/08/23 02:37:54;;;;;;;13.67;12.47;;;16.70;99.90;;;;;;4994539;28;20410;-71
2021/08/23 02:40:20;;;;;;;13.00;11.80;;;16.70;99.90;;;;;;4994354;28;20599;-71
2021/08/23 02:42:46;;;;;;;14.00;12.80;;;16.80;99.90;;;;;;4994341;28;20194;-71
2021/08/23 02:45:12;;;;;;;11.67;10.57;;;16.70;99.90;;;;;;4994494;28;20253;-70
2021/08/23 02:47:37;;;;;;;13.33;12.03;;;16.70;99.90;;;;;;4994195;28;20717;-71
2021/08/23 02:50:05;;;;;;;9.90;9.00;;;16.70;99.90;;;;;;4994839;28;20479;-71
2021/08/23 02:52:31;;;;;;;9.63;8.83;;;16.60;99.90;;;;;;4994555;28;20677;-71
2021/08/23 02:54:56;;;;;;;9.73;8.83;;;16.60;99.90;;;;;;4994750;28;20481;-70
2021/08/23 02:57:22;;;;;;;7.77;7.17;;;16.60;99.90;;;;;;4994708;28;20226;-71
2021/08/23 02:59:47;;;;;;;6.57;5.97;;;16.60;99.90;;;;;;4994355;28;20656;-70
2021/08/23 03:02:12;;;;;;;7.23;6.63;;;16.50;99.90;;;;;;4993593;28;20193;-71
2021/08/23 03:04:38;;;;;;;8.20;7.50;;;16.50;99.90;;;;;;4994716;28;20570;-71
2021/08/23 03:07:03;;;;;;;8.33;7.63;;;16.40;99.90;;;;;;4994019;28;20175;-70
2021/08/23 03:09:29;;;;;;;8.50;7.07;;;16.50;99.90;;;;;;4993749;28;20181;-71
2021/08/23 03:11:54;;;;;;;6.93;6.33;;;16.40;99.90;;;;;;4993539;28;20268;-71
2021/08/23 03:14:20;;;;;;;8.60;7.90;;;16.40;99.90;;;;;;4993883;28;20178;-71
2021/08/23 03:16:46;;;;;;;8.07;7.47;;;16.40;99.90;;;;;;4993426;28;20198;-71
2021/08/23 03:19:11;;;;;;;8.37;7.67;;;16.40;99.90;;;;;;4994096;28;20170;-71
2021/08/23 03:21:37;;;;;;;8.13;7.43;;;16.30;99.90;;;;;;4993583;28;20165;-71
2021/08/23 03:24:02;;;;;;;9.83;8.90;;;16.30;99.90;;;;;;4993521;28;20671;-70
2021/08/23 03:26:28;;;;;;;11.17;10.23;;;16.20;99.90;;;;;;4993525;28;20177;-70
2021/08/23 03:28:53;;;;;;;12.30;11.23;;;16.10;99.90;;;;;;4993368;28;20178;-72
2021/08/23 03:31:19;;;;;;;12.57;11.30;;;16.10;99.90;;;;;;4993198;28;20633;-70
2021/08/23 03:33:44;;;;;;;13.80;12.60;;;16.10;99.90;;;;;;4993344;28;20173;-72
2021/08/23 03:36:10;;;;;;;13.33;12.13;;;16.00;99.90;;;;;;4993468;28;20546;-70
2021/08/23 03:38:36;;;;;;;13.70;12.27;;;16.00;99.90;;;;;;4993104;28;20168;-70
2021/08/23 03:41:01;;;;;;;14.80;13.40;;;16.00;99.90;;;;;;4993204;28;20165;-70
2021/08/23 03:43:27;;;;;;;13.80;12.60;;;16.00;99.90;;;;;;5000838;28;20801;-71
2021/08/23 03:45:53;;;;;;;13.00;11.70;;;15.90;99.90;;;;;;5012605;28;20219;-73
2021/08/23 03:48:18;;;;;;;13.23;11.93;;;15.90;99.90;;;;;;5012626;28;20251;-71
2021/08/23 03:50:43;;;;;;;14.00;12.70;;;15.90;99.90;;;;;;5012697;28;20618;-73
2021/08/23 03:53:09;;;;;;;14.73;13.30;;;15.90;99.90;;;;;;5012757;28;20204;-71
2021/08/23 03:55:34;;;;;;;14.10;12.83;;;15.90;99.90;;;;;;5012485;28;20197;-71
2021/08/23 03:58:00;;;;;;;14.60;13.27;;;15.90;99.90;;;;;;5012233;28;20677;-71
2021/08/23 04:00:25;;;;;;;15.70;14.30;;;15.90;99.90;;;;;;5012100;28;20200;-71
2021/08/23 04:02:51;;;;;;;15.20;13.80;;;15.90;99.90;;;;;;5012098;28;20804;-71
2021/08/23 04:05:16;;;;;;;14.50;13.30;;;15.80;99.90;;;;;;5011127;28;20206;-71
2021/08/23 04:07:42;;;;;;;15.27;13.97;;;15.80;99.90;;;;;;4994510;28;20544;-71
2021/08/23 04:10:08;;;;;;;15.80;14.30;;;15.70;99.90;;;;;;5012118;28;20669;-71
2021/08/23 04:12:34;;;;;;;13.07;12.00;;;15.70;99.90;;;;;;5011651;28;20686;-71
2021/08/23 04:15:00;;;;;;;13.70;12.60;;;15.60;99.90;;;;;;5011829;28;20427;-71
2021/08/23 04:17:25;;;;;;;13.17;11.60;;;15.60;99.90;;;;;;5011855;28;20572;-71
2021/08/23 04:19:51;;;;;;;12.47;11.23;;;15.60;99.90;;;;;;5011819;28;20491;-71
2021/08/23 04:22:16;;;;;;;10.60;9.70;;;15.50;99.90;;;;;;4994397;28;20563;-71
2021/08/23 04:24:42;;;;;;;12.43;11.40;;;15.50;99.90;;;;;;5011727;28;20219;-72
2021/08/23 04:27:08;;;;;;;11.97;10.77;;;15.40;99.90;;;;;;5008194;28;20840;-72
2021/08/23 04:29:33;;;;;;;11.77;10.10;;;15.40;99.90;;;;;;5010544;28;20176;-72
2021/08/23 04:31:59;;;;;;;9.80;8.80;;;15.40;99.90;;;;;;5011439;28;20667;-72
2021/08/23 04:34:24;;;;;;;11.10;10.10;;;15.30;99.90;;;;;;5011607;28;20168;-72
2021/08/23 04:36:50;;;;;;;8.90;8.10;;;15.30;99.90;;;;;;5011472;28;20303;-71
2021/08/23 04:39:15;;;;;;;9.27;8.17;;;15.30;99.90;;;;;;5011573;28;20168;-72
2021/08/23 04:41:42;;;;;;;9.20;8.33;;;15.20;99.90;;;;;;5011533;28;20202;-72
2021/08/23 04:44:09;;;;;;;8.83;7.93;;;15.20;99.90;;;;;;5011439;28;20176;-72
2021/08/23 04:46:35;;;;;;;7.77;7.13;;;15.20;99.90;;;;;;5011434;28;20496;-71
2021/08/23 04:49:01;;;;;;;8.00;7.17;;;15.10;99.90;;;;;;5011386;28;20403;-71
2021/08/23 04:51:27;;;;;;;7.90;7.20;;;15.10;99.90;;;;;;5011293;28;20410;-72
2021/08/23 04:53:52;;;;;;;7.50;6.90;;;15.00;99.90;;;;;;5015167;28;20403;-71
2021/08/23 04:56:18;;;;;;;7.53;6.73;;;15.00;99.90;;;;;;5015308;28;20674;-71
2021/08/23 04:58:44;;;;;;;6.97;6.30;;;15.00;99.90;;;;;;5015162;28;20258;-71
2021/08/23 05:01:10;;;;;;;7.80;7.10;;;14.90;99.90;;;;;;5015164;28;20518;-71
2021/08/23 05:03:36;;;;;;;7.43;6.27;;;14.90;99.90;;;;;;5015027;28;20443;-71
2021/08/23 05:06:02;;;;;;;7.23;6.60;;;14.90;99.90;;;;;;5015148;28;20399;-71
2021/08/23 05:08:28;;;;;;;6.87;5.40;;;14.80;99.90;;;;;;5015134;28;20200;-71
2021/08/23 05:10:53;;;;;;;6.87;6.17;;;14.80;99.90;;;;;;5015076;28;20242;-70
2021/08/23 05:13:19;;;;;;;6.10;5.50;;;14.90;99.90;;;;;;5014973;28;20219;-72
2021/08/23 05:15:44;;;;;;;6.17;5.13;;;14.90;99.90;;;;;;5015180;28;20558;-72
2021/08/23 05:18:10;;;;;;;7.00;6.30;;;14.80;99.90;;;;;;5014922;28;20161;-72
2021/08/23 05:20:36;;;;;;;8.70;5.53;;;14.80;99.90;;;;;;5014980;28;20172;-70
2021/08/23 05:23:01;;;;;;;10.23;5.53;;;14.80;99.90;;;;;;5014749;28;20189;-70
2021/08/23 05:25:27;;;;;;;9.13;8.23;;;14.80;99.90;;;;;;5014851;28;20473;-71
2021/08/23 05:27:52;;;;;;;7.57;5.60;;;14.80;99.90;;;;;;5014525;28;20230;-71
2021/08/23 05:30:18;;;;;;;8.70;5.50;;;14.80;99.90;;;;;;5014862;28;20188;-71
2021/08/23 05:32:43;;;;;;;8.13;5.30;;;14.80;99.90;;;;;;5014780;28;20272;-71
2021/08/23 05:35:09;;;;;;;6.23;4.70;;;14.80;99.90;;;;;;5014437;28;20317;-71
2021/08/23 05:37:35;;;;;;;4.43;4.13;;;14.80;99.90;;;;;;5014632;28;20247;-73
2021/08/23 05:40:01;;;;;;;6.67;5.00;;;14.80;99.90;;;;;;5011981;28;20593;-72
2021/08/23 05:42:26;;;;;;;5.60;5.10;;;14.90;99.90;;;;;;5014166;28;20192;-73
2021/08/23 05:44:54;;;;;;;5.60;5.10;;;14.80;99.90;;;;;;5012574;28;20256;-70
2021/08/23 05:47:19;;;;;;;6.67;5.23;;;14.80;99.90;;;;;;5014412;28;20188;-73
2021/08/23 05:49:45;;;;;;;10.40;5.03;;;14.80;99.90;;;;;;5014378;28;20497;-71
2021/08/23 05:52:10;;;;;;;7.80;4.83;;;14.80;99.90;;;;;;5014171;28;20531;-70
2021/08/23 05:54:37;;;;;;;6.20;4.97;;;14.90;99.90;;;;;;5014236;28;20180;-71
2021/08/23 05:57:03;;;;;;;11.20;5.37;;;14.90;99.90;;;;;;5013951;28;20287;-71
2021/08/23 05:59:29;;;;;;;5.73;5.23;;;14.90;99.90;;;;;;5014178;28;20450;-71
2021/08/23 06:01:56;;;;;;;6.30;4.43;;;14.90;99.90;;;;;;5014047;28;20486;-71
2021/08/23 06:04:22;;;;;;;6.03;5.33;;;15.00;99.90;;;;;;5012904;28;20196;-71
2021/08/23 06:06:48;;;;;;;5.57;4.97;;;15.00;99.90;;;;;;5014108;28;20820;-71
2021/08/23 06:09:15;;;;;;;5.17;4.77;;;15.00;99.90;;;;;;5014069;28;20466;-70
2021/08/23 06:11:41;;;;;;;7.97;4.47;;;15.00;99.90;;;;;;5013748;28;20849;-71
2021/08/23 06:14:06;;;;;;;4.80;4.40;;;15.10;99.90;;;;;;5014035;28;20423;-70
2021/08/23 06:16:31;;;;;;;5.27;4.83;;;15.00;99.90;;;;;;5012578;28;20254;-71
2021/08/23 06:18:57;;;;;;;4.13;3.83;;;15.10;99.90;;;;;;4997514;28;20169;-70
2021/08/23 06:21:22;;;;;;;5.87;4.33;;;15.10;99.90;;;;;;4994162;28;20256;-70
2021/08/23 06:23:48;;;;;;;4.53;4.13;;;15.20;99.90;;;;;;4994279;28;20184;-70
2021/08/23 06:26:13;;;;;;;4.67;4.27;;;15.20;99.90;;;;;;4994154;28;20189;-70
2021/08/23 06:28:39;;;;;;;5.33;4.17;;;15.30;99.90;;;;;;4993952;28;20248;-70
2021/08/23 06:31:04;;;;;;;5.30;4.33;;;15.30;99.90;;;;;;4994049;28;20503;-70
2021/08/23 06:33:30;;;;;;;5.00;4.47;;;15.30;99.90;;;;;;4993957;28;20283;-71
2021/08/23 06:35:55;;;;;;;4.70;4.20;;;15.40;99.90;;;;;;4993957;28;20196;-71
2021/08/23 06:38:21;;;;;;;4.40;4.00;;;15.40;99.90;;;;;;4993847;28;20633;-71
2021/08/23 06:40:46;;;;;;;4.17;3.60;;;15.40;99.90;;;;;;4976338;28;20173;-71
2021/08/23 06:43:11;;;;;;;4.40;4.10;;;15.40;99.90;;;;;;4993866;28;20207;-71
2021/08/23 06:45:37;;;;;;;4.90;3.43;;;15.50;99.90;;;;;;4993867;28;20177;-72
2021/08/23 06:48:03;;;;;;;3.30;3.00;;;15.50;99.90;;;;;;4993797;28;20177;-71
2021/08/23 06:50:28;;;;;;;3.73;3.43;;;15.50;99.90;;;;;;4993815;28;20185;-71
2021/08/23 06:52:54;;;;;;;4.03;3.63;;;15.50;99.90;;;;;;4993562;28;20519;-71
2021/08/23 06:55:19;;;;;;;7.87;3.80;;;15.50;99.90;;;;;;4993478;28;20524;-71
2021/08/23 06:57:45;;;;;;;5.57;3.80;;;15.60;99.90;;;;;;4993412;28;20594;-71
2021/08/23 07:00:11;;;;;;;4.17;3.77;;;15.70;99.90;;;;;;4993671;28;20173;-72
2021/08/23 07:02:36;;;;;;;3.97;3.63;;;15.70;99.90;;;;;;4993552;28;20241;-71
2021/08/23 07:05:02;;;;;;;4.20;3.30;;;15.80;99.90;;;;;;4993585;28;20432;-70
2021/08/23 07:07:29;;;;;;;3.73;3.43;;;15.80;99.90;;;;;;4993241;28;20168;-72
2021/08/23 07:09:54;;;;;;;4.70;3.57;;;15.90;99.90;;;;;;4993305;28;20205;-70
2021/08/23 07:12:20;;;;;;;3.77;3.47;;;15.70;99.90;;;;;;4993770;28;20497;-71
2021/08/23 07:14:45;;;;;;;4.40;4.00;;;15.70;99.90;;;;;;5008960;28;20249;-71
2021/08/23 07:17:10;;;;;;;5.30;3.40;;;15.70;99.90;;;;;;5001098;28;20197;-71
2021/08/23 07:19:36;;;;;;;5.27;4.87;;;15.70;99.90;;;;;;4993146;28;20228;-71
2021/08/23 07:22:02;;;;;;;4.60;3.40;;;15.70;99.90;;;;;;5010266;28;20222;-71
2021/08/23 07:24:28;;;;;;;6.87;3.50;;;15.70;99.90;;;;;;5012733;28;20165;-71
2021/08/23 07:26:53;;;;;;;5.13;3.27;;;15.70;99.90;;;;;;5012433;28;20179;-71
2021/08/23 07:29:19;;;;;;;4.60;3.73;;;15.70;99.90;;;;;;5007474;28;20187;-71
2021/08/23 07:31:45;;;;;;;3.80;3.37;;;15.70;99.90;;;;;;5012260;28;20186;-71
2021/08/23 07:34:10;;;;;;;3.63;3.00;;;15.70;99.90;;;;;;5011863;28;20905;-71
2021/08/23 07:36:36;;;;;;;8.83;3.77;;;15.70;99.90;;;;;;5012013;28;20192;-71
2021/08/23 07:39:02;;;;;;;7.40;3.30;;;15.80;99.90;;;;;;4993970;28;20296;-71
2021/08/23 07:41:27;;;;;;;3.63;3.33;;;15.70;99.90;;;;;;5012000;28;20224;-71
2021/08/23 07:43:53;;;;;;;3.90;3.60;;;15.80;99.90;;;;;;5012145;28;20442;-73
2021/08/23 07:46:18;;;;;;;4.90;3.43;;;15.80;99.90;;;;;;5012198;28;20188;-72
2021/08/23 07:48:44;;;;;;;5.20;3.30;;;15.80;99.90;;;;;;5012120;28;20591;-72
2021/08/23 07:51:11;;;;;;;4.23;3.30;;;15.80;99.90;;;;;;5012120;28;20356;-72
2021/08/23 07:53:37;;;;;;;5.17;4.60;;;15.80;99.90;;;;;;5012250;28;20434;-72
2021/08/23 07:56:03;;;;;;;5.50;2.87;;;15.70;99.90;;;;;;5011902;28;20461;-70
2021/08/23 07:58:28;;;;;;;4.47;3.30;;;15.70;99.90;;;;;;5012258;28;20969;-72
2021/08/23 08:00:54;;;;;;;4.87;2.80;;;15.80;99.90;;;;;;5012587;28;20704;-69
2021/08/23 08:03:19;;;;;;;3.30;3.00;;;15.80;99.90;;;;;;5011985;28;20188;-69
2021/08/23 08:05:45;;;;;;;4.27;3.73;;;15.90;99.90;;;;;;5012130;28;20314;-71
2021/08/23 08:08:10;;;;;;;3.23;2.90;;;15.90;99.90;;;;;;5012021;28;20178;-69
2021/08/23 08:10:37;;;;;;;3.20;2.90;;;16.00;99.90;;;;;;5011566;28;20656;-70
2021/08/23 08:13:03;;;;;;;6.80;3.00;;;16.00;99.90;;;;;;5011418;28;20204;-70
2021/08/23 08:15:29;;;;;;;3.33;3.00;;;16.00;99.90;;;;;;4993884;28;20451;-71
2021/08/23 08:17:55;;;;;;;4.70;3.00;;;15.90;99.90;;;;;;5011412;28;20414;-70
2021/08/23 08:20:20;;;;;;;4.47;3.47;;;15.90;99.90;;;;;;5011747;28;20164;-70
2021/08/23 08:22:46;;;;;;;4.37;2.60;;;15.80;99.90;;;;;;5011651;28;20522;-71
2021/08/23 08:25:12;;;;;;;6.40;2.87;;;15.80;99.90;;;;;;5011270;28;20170;-71
2021/08/23 08:27:37;;;;;;;3.40;3.20;;;15.70;99.90;;;;;;5010615;28;20255;-71
2021/08/23 08:30:05;;;;;;;3.90;2.77;;;15.70;99.90;;;;;;5011473;28;20482;-71
2021/08/23 08:32:30;;;;;;;2.60;2.40;;;15.70;99.90;;;;;;5011467;28;20188;-72
2021/08/23 08:34:56;;;;;;;3.30;2.83;;;15.70;99.90;;;;;;5011478;28;20431;-70
2021/08/23 08:37:21;;;;;;;8.23;2.67;;;15.80;99.90;;;;;;5011210;28;20238;-70
2021/08/23 08:39:47;;;;;;;3.93;2.50;;;15.80;99.90;;;;;;5011234;28;20165;-70
2021/08/23 08:42:14;;;;;;;4.47;3.00;;;15.80;99.90;;;;;;5011343;28;20207;-70
2021/08/23 08:44:39;;;;;;;3.37;2.73;;;15.90;99.90;;;;;;5011373;28;20191;-70
2021/08/23 08:47:05;;;;;;;10.53;2.83;;;16.00;99.90;;;;;;5011260;28;20403;-70
2021/08/23 08:49:35;;;;;;;4.53;2.90;;;16.00;99.90;;;;;;5011393;28;20174;-71
2021/08/23 08:52:03;;;;;;;2.70;2.00;;;16.10;99.90;;;;;;5011303;28;20439;-71
2021/08/23 08:54:29;;;;;;;4.73;3.27;;;16.10;99.90;;;;;;5011232;28;20969;-71
2021/08/23 08:56:54;;;;;;;3.47;3.17;;;16.30;99.90;;;;;;5011155;28;20452;-71
2021/08/23 08:59:20;;;;;;;4.63;2.70;;;16.30;99.90;;;;;;5011287;28;20205;-71
2021/08/23 09:01:48;;;;;;;2.80;2.20;;;16.40;99.90;;;;;;5011286;28;20186;-71
2021/08/23 09:04:14;;;;;;;2.20;2.00;;;16.40;99.90;;;;;;5011377;28;20173;-71
2021/08/23 09:06:41;;;;;;;2.43;1.97;;;16.50;99.90;;;;;;5011282;28;20422;-71
2021/08/23 09:09:11;;;;;;;2.30;1.83;;;16.50;99.90;;;;;;5007320;28;20201;-71
2021/08/23 09:11:40;;;;;;;2.50;2.30;;;16.60;99.90;;;;;;5010802;28;20519;-71
2021/08/23 09:14:07;;;;;;;8.23;2.53;;;16.70;99.90;;;;;;5010963;28;20534;-70
2021/08/23 09:16:35;;;;;;;2.40;2.20;;;16.70;99.90;;;;;;5010932;28;20923;-71
2021/08/23 09:19:00;;;;;;;3.10;2.10;;;16.70;99.90;;;;;;5010785;28;20424;-71
2021/08/23 09:21:39;;;;;;;2.70;2.50;;;16.90;99.90;;;;;;5010902;28;20416;-71
2021/08/23 09:24:22;;;;;;;4.50;2.10;;;16.90;99.90;;;;;;5011273;28;20640;-71
2021/08/23 09:26:48;;;;;;;3.00;2.03;;;17.00;99.90;;;;;;5011139;28;20405;-71
2021/08/23 09:29:13;;;;;;;2.90;2.17;;;17.10;99.90;;;;;;5010890;28;20467;-71
2021/08/23 09:31:40;;;;;;;4.60;2.10;;;17.20;99.90;;;;;;5010868;28;20196;-71
2021/08/23 09:34:13;;;;;;;1.90;1.80;;;17.30;99.90;;;;;;5011012;28;20199;-71
2021/08/23 09:36:39;;;;;;;1.63;1.33;;;17.50;99.90;;;;;;5010958;28;21040;-71
2021/08/23 09:39:15;;;;;;;3.20;2.10;;;17.60;99.90;;;;;;5012964;28;20405;-71
2021/08/23 09:41:41;;;;;;;2.87;1.97;;;17.70;99.90;;;;;;5014562;28;20268;-70
2021/08/23 09:44:12;;;;;;;2.57;1.80;;;17.80;99.90;;;;;;5014609;28;20398;-71
2021/08/23 09:46:39;;;;;;;3.23;2.13;;;17.80;99.90;;;;;;5014524;28;20403;-71
2021/08/23 09:49:08;;;;;;;4.17;2.87;;;17.80;99.90;;;;;;5014276;28;20843;-70
2021/08/23 09:51:39;;;;;;;2.63;2.43;;;17.80;99.90;;;;;;5014247;28;20406;-74
2021/08/23 09:54:16;;;;;;;2.27;2.10;;;17.80;99.90;;;;;;4996803;28;20426;-71
2021/08/23 09:56:53;;;;;;;1.70;1.60;;;17.80;99.90;;;;;;5014370;28;20449;-71
2021/08/23 09:59:24;;;;;;;5.20;1.93;;;17.70;99.90;;;;;;5014324;28;20414;-70
2021/08/23 10:01:53;;;;;;;3.63;1.47;;;17.70;99.90;;;;;;5014172;28;20432;-71
2021/08/23 10:04:21;;;;;;;2.60;1.50;;;17.70;99.90;;;;;;4996840;28;20504;-71
2021/08/23 10:06:48;;;;;;;3.27;2.10;;;17.80;99.90;;;;;;5014186;28;20417;-72
2021/08/23 10:09:23;;;;;;;2.13;1.93;;;17.70;99.90;;;;;;5010510;28;20430;-71
2021/08/23 10:11:50;;;;;;;2.47;2.00;;;17.70;99.90;;;;;;5013785;28;20452;-71
2021/08/23 10:14:16;;;;;;;3.20;1.90;;;17.70;99.90;;;;;;5014095;28;20411;-71
2021/08/23 10:16:42;;;;;;;1.80;1.70;;;17.70;99.90;;;;;;5013766;28;20461;-69
2021/08/23 10:19:09;;;;;;;5.90;2.00;;;17.80;99.90;;;;;;5013742;28;20459;-71
2021/08/23 10:21:37;;;;;;;2.70;1.80;;;17.80;99.90;;;;;;5013686;28;20173;-70
2021/08/23 10:24:03;;;;;;;2.90;1.80;;;17.80;99.90;;;;;;5013817;28;20794;-71
2021/08/23 10:26:41;;;;;;;3.33;2.37;;;17.80;99.90;;;;;;5013612;28;20405;-70
2021/08/23 10:29:09;;;;;;;5.43;2.50;;;17.70;99.90;;;;;;5013605;28;20425;-70
2021/08/23 10:31:36;;;;;;;1.77;1.60;;;17.70;99.90;;;;;;5013601;28;20402;-70
2021/08/23 10:34:16;;;;;;;2.63;2.10;;;17.70;99.90;;;;;;5013490;28;20413;-70
2021/08/23 10:36:43;;;;;;;2.13;1.80;;;17.70;99.90;;;;;;5013641;28;20461;-71
2021/08/23 10:39:09;;;;;;;2.83;1.97;;;17.60;99.90;;;;;;5013359;28;20519;-72
2021/08/23 10:41:35;;;;;;;4.20;2.00;;;17.60;99.90;;;;;;5013263;28;20413;-71
2021/08/23 10:44:04;;;;;;;5.50;2.07;;;17.60;99.90;;;;;;5013477;28;20171;-71
2021/08/23 10:46:34;;;;;;;2.47;2.20;;;17.60;99.90;;;;;;5013326;28;20417;-71
2021/08/23 10:49:04;;;;;;;4.23;2.53;;;17.50;99.90;;;;;;5012857;28;20438;-70
2021/08/23 10:51:38;;;;;;;2.07;1.87;;;17.50;99.90;;;;;;5012474;28;20409;-69
2021/08/23 10:54:27;;;;;;;3.10;1.93;;;17.50;99.90;;;;;;5013219;28;20407;-70
2021/08/23 10:57:14;;;;;;;2.80;2.17;;;17.50;99.90;;;;;;5013008;28;20495;-70
2021/08/23 10:59:48;;;;;;;4.30;2.00;;;17.50;99.90;;;;;;5012830;28;20417;-70
2021/08/23 11:02:21;;;;;;;2.07;1.90;;;17.50;99.90;;;;;;5013194;28;20496;-70
2021/08/23 11:05:19;;;;;;;4.93;2.80;;;17.60;99.90;;;;;;5012960;28;20429;-70
2021/08/23 11:07:47;;;;;;;4.40;2.20;;;17.70;99.90;;;;;;5012770;28;20426;-70
2021/08/23 11:10:17;;;;;;;3.77;2.20;;;17.60;99.90;;;;;;5009527;28;20501;-71
2021/08/23 11:12:48;;;;;;;7.53;2.00;;;17.60;99.90;;;;;;5012629;28;20455;-71
2021/08/23 11:15:24;;;;;;;2.27;1.90;;;17.50;99.90;;;;;;5012714;28;20779;-71
2021/08/23 11:17:55;;;;;;;3.77;2.63;;;17.50;99.90;;;;;;5012805;28;20432;-72
2021/08/23 11:20:29;;;;;;;3.07;2.70;;;17.50;99.90;;;;;;5012854;28;20398;-71
2021/08/23 11:22:59;;;;;;;3.87;2.23;;;17.60;99.90;;;;;;5012668;28;20444;-71
2021/08/23 11:25:32;;;;;;;4.27;1.77;;;17.70;99.90;;;;;;5012709;28;20395;-71
2021/08/23 11:27:59;;;;;;;3.20;2.37;;;17.80;99.90;;;;;;5012659;28;20480;-69
2021/08/23 11:30:36;;;;;;;3.47;2.67;;;17.80;99.90;;;;;;5012549;28;20410;-70
2021/08/23 11:33:03;;;;;;;2.53;2.03;;;18.00;99.90;;;;;;5012690;28;20422;-70
2021/08/23 11:35:29;;;;;;;2.90;2.07;;;18.00;99.90;;;;;;5012554;28;20390;-69
2021/08/23 11:37:56;;;;;;;2.37;2.10;;;18.10;99.90;;;;;;5012538;28;20419;-70
2021/08/23 11:40:22;;;;;;;3.27;2.10;;;18.30;99.90;;;;;;5012510;28;20179;-70
2021/08/23 11:42:52;;;;;;;5.00;2.87;;;18.50;99.90;;;;;;5012340;28;20859;-70
2021/08/23 11:45:23;;;;;;;3.33;2.00;;;18.50;99.90;;;;;;5012509;28;20172;-70
2021/08/23 11:47:50;;;;;;;2.33;2.00;;;18.50;99.90;;;;;;5010517;28;23312;-69
2021/08/23 11:50:18;;;;;;;2.30;2.10;;;18.60;99.90;;;;;;4995277;28;20421;-70
2021/08/23 11:52:43;;;;;;;3.00;2.10;;;18.60;99.90;;;;;;4995318;28;20439;-70
2021/08/23 11:55:09;;;;;;;3.57;1.97;;;18.80;99.90;;;;;;5001863;28;20422;-69
2021/08/23 11:57:36;;;;;;;4.03;2.60;;;18.80;99.90;;;;;;5010116;28;20205;-70
2021/08/23 12:00:05;;;;;;;4.43;1.93;;;18.90;99.90;;;;;;5010353;28;20171;-70
2021/08/23 12:02:32;;;;;;;3.33;2.30;;;18.90;99.90;;;;;;5009914;28;20424;-70
2021/08/23 12:05:12;;;;;;;2.83;2.10;;;18.80;99.90;;;;;;5012150;28;20408;-69
2021/08/23 12:07:45;;;;;;;3.27;1.90;;;19.00;99.90;;;;;;5011964;28;20411;-69
2021/08/23 12:10:49;;;;;;;3.30;2.40;;;19.00;99.90;;;;;;5012352;28;20791;-69
2021/08/23 12:13:17;;;;;;;3.93;2.77;;;19.00;99.90;;;;;;5005625;28;20804;-70
2021/08/23 12:16:00;;;;;;;3.37;2.00;;;19.10;99.90;;;;;;5011844;28;20454;-68
2021/08/23 12:18:33;;;;;;;3.80;2.17;;;19.10;99.90;;;;;;5011618;28;20400;-68
2021/08/23 12:21:13;;;;;;;2.37;2.10;;;19.20;99.90;;;;;;5011975;28;20413;-68
2021/08/23 12:23:48;;;;;;;4.53;2.40;;;19.30;99.90;;;;;;5011982;28;20784;-68
2021/08/23 12:26:15;;;;;;;6.27;2.00;;;19.20;99.90;;;;;;5012404;28;20403;-68
2021/08/23 12:28:50;;;;;;;4.17;2.23;;;19.20;99.90;;;;;;5012037;28;20504;-69
2021/08/23 12:31:17;;;;;;;2.70;1.97;;;19.30;99.90;;;;;;5012009;28;20908;-70
2021/08/23 12:33:43;;;;;;;2.27;2.07;;;19.50;99.90;;;;;;5012090;28;20808;-70
2021/08/23 12:36:08;;;;;;;3.63;1.70;;;19.50;99.90;;;;;;5011658;28;20477;-70
2021/08/23 12:38:34;;;;;;;2.90;2.07;;;19.60;99.90;;;;;;5011844;28;20413;-70
2021/08/23 12:40:59;;;;;;;1.83;1.63;;;19.60;99.90;;;;;;5011754;28;20173;-71